Time;durP1;ratioP1;P1;durP2;ratioP2;P2;SDS_P1;SDS_P2;PMS_P1;PMS_P2;Temp;Humidity;BMP_temperature;BMP_pressure;BME280_temperature;BME280_humidity;BME280_pressure;Samples;Min_cycle;Max_cycle;Signal;HPM_P1;HPM_P2
2022/01/07 00:00:20;;;;;;;7.07;4.17;;;;;;;5.03;56.46;101023.00;685085;28;1477;-84
2022/01/07 00:00:42;;;;;;;7.97;4.10;;;;;;;5.05;56.44;101021.41;685519;28;875;-83
2022/01/07 00:01:06;;;;;;;10.00;4.28;;;;;;;5.04;56.25;101011.84;681076;29;1521;-84
2022/01/07 00:01:27;;;;;;;10.05;4.28;;;;;;;5.01;56.13;101015.16;678795;29;1258;-82
2022/01/07 00:01:47;;;;;;;11.37;4.07;;;;;;;5.03;56.27;101020.44;681608;29;1123;-83
2022/01/07 00:02:08;;;;;;;9.30;4.00;;;;;;;5.07;56.34;101019.78;682243;29;1198;-84
2022/01/07 00:02:29;;;;;;;8.10;4.40;;;;;;;5.03;56.63;101003.19;685578;28;1174;-83
2022/01/07 00:02:54;;;;;;;6.83;4.60;;;;;;;5.05;56.32;100990.34;680866;29;1117;-83
2022/01/07 00:03:15;;;;;;;6.57;4.75;;;;;;;5.07;56.00;101005.16;683873;28;1316;-83
2022/01/07 00:03:35;;;;;;;7.28;4.55;;;;;;;5.14;56.14;101014.13;685987;28;764;-83
2022/01/07 00:03:56;;;;;;;5.87;3.93;;;;;;;5.11;56.13;101000.13;682767;29;1096;-84
2022/01/07 00:04:17;;;;;;;6.60;3.80;;;;;;;5.12;56.31;101001.91;680023;28;1114;-83
2022/01/07 00:04:38;;;;;;;6.20;3.80;;;;;;;5.10;56.08;100996.66;680163;29;1402;-83
2022/01/07 00:04:59;;;;;;;7.20;3.80;;;;;;;5.12;56.07;101001.91;682474;29;1454;-83
2022/01/07 00:05:20;;;;;;;7.10;3.70;;;;;;;5.13;56.04;101014.94;682711;29;1234;-83
2022/01/07 00:05:42;;;;;;;6.55;3.85;;;;;;;5.07;56.06;101012.00;688272;28;1263;-83
2022/01/07 00:06:02;;;;;;;5.97;3.90;;;;;;;5.04;56.07;100996.34;682739;28;1374;-83
2022/01/07 00:06:23;;;;;;;7.80;4.15;;;;;;;5.11;55.83;101001.03;682353;29;1307;-83
2022/01/07 00:06:44;;;;;;;8.38;4.07;;;;;;;5.12;56.38;101012.25;679863;29;1911;-83
2022/01/07 00:07:05;;;;;;;8.60;4.18;;;;;;;5.10;56.40;101009.59;676204;29;3547;-82
2022/01/07 00:07:26;;;;;;;8.30;3.90;;;;;;;5.01;56.20;100999.63;677617;29;2518;-83
2022/01/07 00:07:46;;;;;;;8.73;3.97;;;;;;;5.00;56.29;101007.31;682175;29;911;-84
2022/01/07 00:08:07;;;;;;;9.57;4.00;;;;;;;5.10;56.49;101017.38;678781;29;2061;-83
2022/01/07 00:08:29;;;;;;;8.65;3.90;;;;;;;5.09;55.84;101004.34;682488;29;847;-83
2022/01/07 00:08:50;;;;;;;11.13;3.90;;;;;;;5.04;55.93;100996.34;679702;29;1882;-82
2022/01/07 00:09:11;;;;;;;10.65;3.58;;;;;;;5.02;55.89;101008.28;679895;29;1186;-83
2022/01/07 00:09:32;;;;;;;10.63;3.90;;;;;;;5.08;56.23;101011.19;678982;29;1429;-83
2022/01/07 00:09:52;;;;;;;10.85;4.00;;;;;;;5.02;56.13;100995.34;676750;29;1118;-83
2022/01/07 00:10:17;;;;;;;12.00;4.22;;;;;;;5.12;56.07;101005.41;679967;29;1015;-83
2022/01/07 00:10:38;;;;;;;11.27;3.60;;;;;;;5.04;55.80;101010.13;677498;29;1262;-83
2022/01/07 00:10:58;;;;;;;8.23;3.87;;;;;;;5.02;56.00;101000.50;679850;29;1037;-84
2022/01/07 00:11:19;;;;;;;7.90;3.92;;;;;;;5.06;56.01;101002.47;682438;28;1199;-84
2022/01/07 00:11:40;;;;;;;11.57;4.78;;;;;;;5.16;55.89;101019.41;682845;28;1133;-83
2022/01/07 00:12:00;;;;;;;12.93;4.63;;;;;;;5.05;55.96;101000.69;677850;29;1093;-83
2022/01/07 00:12:22;;;;;;;14.50;4.70;;;;;;;5.08;56.03;101000.84;677388;29;1105;-83
2022/01/07 00:12:44;;;;;;;11.55;4.10;;;;;;;5.03;55.81;100994.56;677565;29;948;-83
2022/01/07 00:13:04;;;;;;;7.28;3.80;;;;;;;5.05;55.77;101008.47;682558;29;1419;-84
2022/01/07 00:13:25;;;;;;;6.20;3.70;;;;;;;5.05;55.60;101005.88;680349;29;1170;-83
2022/01/07 00:13:46;;;;;;;9.40;4.07;;;;;;;4.97;55.93;100991.63;677681;29;1041;-83
2022/01/07 00:14:07;;;;;;;10.38;4.00;;;;;;;5.11;56.04;101011.38;682568;28;1418;-83
2022/01/07 00:14:27;;;;;;;11.73;4.10;;;;;;;5.09;55.87;100996.59;680081;29;1229;-83
2022/01/07 00:14:49;;;;;;;10.63;4.00;;;;;;;5.14;55.97;101001.19;680161;29;1198;-83
2022/01/07 00:15:10;;;;;;;10.27;3.85;;;;;;;5.16;55.66;100994.38;679912;29;1167;-82
2022/01/07 00:15:31;;;;;;;9.43;3.80;;;;;;;5.22;55.28;101008.47;673875;29;1214;-83
2022/01/07 00:15:54;;;;;;;9.35;3.80;;;;;;;5.15;55.87;101004.69;680127;28;1150;-84
2022/01/07 00:16:16;;;;;;;8.65;3.83;;;;;;;5.14;55.40;100993.44;682646;29;1033;-82
2022/01/07 00:16:37;;;;;;;9.45;3.95;;;;;;;5.13;55.63;101001.09;680154;29;1250;-84
2022/01/07 00:16:58;;;;;;;8.57;4.03;;;;;;;5.17;55.46;100993.56;677421;29;1144;-84
2022/01/07 00:17:36;;;;;;;6.90;3.85;;;;;;;5.16;55.48;100985.75;679781;29;1152;-83
2022/01/07 00:17:58;;;;;;;7.95;3.88;;;;;;;5.26;55.28;100992.28;684217;28;1138;-83
2022/01/07 00:18:18;;;;;;;9.65;4.03;;;;;;;5.17;55.19;100991.00;681489;28;1564;-83
2022/01/07 00:18:44;;;;;;;8.77;3.80;;;;;;;5.18;54.92;101003.16;682530;29;1536;-83
2022/01/07 00:19:04;;;;;;;7.60;3.70;;;;;;;5.20;55.10;100990.28;682726;29;1338;-83
2022/01/07 00:19:25;;;;;;;6.55;3.70;;;;;;;5.16;55.23;100985.75;677383;29;1236;-83
2022/01/07 00:19:45;;;;;;;8.05;3.97;;;;;;;5.23;55.29;100989.56;677019;29;1170;-83
2022/01/07 00:20:09;;;;;;;7.30;3.73;;;;;;;5.22;54.96;100992.94;674944;29;1102;-83
2022/01/07 00:20:30;;;;;;;6.93;3.53;;;;;;;5.12;55.27;100989.88;677619;29;898;-84
2022/01/07 00:20:52;;;;;;;4.93;3.20;;;;;;;5.18;55.58;100986.72;679937;29;1280;-83
2022/01/07 00:21:12;;;;;;;7.72;3.50;;;;;;;5.16;55.46;100989.22;680242;29;976;-83
2022/01/07 00:21:33;;;;;;;8.77;3.50;;;;;;;5.20;55.34;101000.63;685505;28;1068;-83
2022/01/07 00:21:54;;;;;;;6.83;3.30;;;;;;;5.19;55.04;100988.50;679827;29;1459;-83
2022/01/07 00:22:14;;;;;;;6.10;3.40;;;;;;;5.14;55.35;100979.59;679969;29;1722;-83
2022/01/07 00:22:37;;;;;;;8.75;3.88;;;;;;;5.25;55.07;100991.41;682371;29;1046;-83
2022/01/07 00:22:57;;;;;;;9.02;4.07;;;;;;;5.13;55.04;100977.81;684515;28;1072;-83
2022/01/07 00:23:18;;;;;;;10.50;4.30;;;;;;;5.11;55.33;100977.75;682628;29;1269;-83
2022/01/07 00:23:39;;;;;;;7.50;4.03;;;;;;;5.13;55.53;100985.56;682836;29;1213;-83
2022/01/07 00:24:00;;;;;;;9.10;4.05;;;;;;;5.11;55.42;100989.78;682161;29;1076;-83
2022/01/07 00:24:20;;;;;;;9.15;4.15;;;;;;;5.13;55.21;100994.25;680083;29;1100;-84
2022/01/07 00:24:41;;;;;;;8.90;4.07;;;;;;;5.15;55.36;100982.25;682147;29;1169;-84
2022/01/07 00:25:02;;;;;;;10.07;4.20;;;;;;;5.20;55.38;100995.44;679819;29;1093;-84
2022/01/07 00:25:24;;;;;;;8.80;4.00;;;;;;;5.13;55.38;100967.47;680115;29;977;-84
2022/01/07 00:25:45;;;;;;;8.18;3.88;;;;;;;5.16;55.14;100981.44;682735;29;1194;-83
2022/01/07 00:26:05;;;;;;;6.37;3.90;;;;;;;5.18;54.81;100977.28;682725;28;1186;-83
2022/01/07 00:26:27;;;;;;;6.18;3.65;;;;;;;5.15;55.18;100971.91;677618;29;844;-83
2022/01/07 00:26:47;;;;;;;8.77;3.70;;;;;;;5.22;54.90;100974.84;677456;29;1982;-82
2022/01/07 00:27:08;;;;;;;8.65;3.40;;;;;;;5.10;54.53;100973.38;680057;29;1167;-83
2022/01/07 00:27:28;;;;;;;6.63;3.35;;;;;;;5.14;55.00;100975.31;674494;29;1769;-83
2022/01/07 00:27:49;;;;;;;7.63;3.67;;;;;;;5.10;55.06;100969.91;681541;28;1469;-83
2022/01/07 00:28:10;;;;;;;10.90;4.10;;;;;;;5.10;55.11;100965.63;682382;28;1199;-84
2022/01/07 00:28:31;;;;;;;12.60;3.90;;;;;;;5.09;54.98;100961.22;680302;29;800;-83
2022/01/07 00:28:52;;;;;;;9.35;3.63;;;;;;;5.16;54.60;100958.16;679800;29;1124;-83
2022/01/07 00:29:12;;;;;;;6.35;3.50;;;;;;;5.17;54.68;100977.19;679979;29;1160;-83
2022/01/07 00:29:33;;;;;;;4.43;3.40;;;;;;;5.11;54.67;100966.50;682997;28;1160;-84
2022/01/07 00:29:53;;;;;;;5.97;3.70;;;;;;;5.10;55.00;100950.09;679831;29;1160;-83
2022/01/07 00:30:15;;;;;;;7.68;3.90;;;;;;;5.11;54.89;100963.91;677380;29;1238;-83
2022/01/07 00:30:36;;;;;;;7.95;4.05;;;;;;;5.13;54.79;100963.19;680237;29;801;-83
2022/01/07 00:30:57;;;;;;;6.53;3.92;;;;;;;5.14;54.76;100966.66;681018;29;1356;-83
2022/01/07 00:31:17;;;;;;;5.72;3.85;;;;;;;5.14;54.96;100972.72;687428;28;1421;-84
2022/01/07 00:31:38;;;;;;;5.20;3.77;;;;;;;5.13;54.93;100950.25;680232;29;856;-83
2022/01/07 00:31:59;;;;;;;6.45;3.90;;;;;;;5.09;54.96;100955.19;680035;29;1064;-84
2022/01/07 00:32:19;;;;;;;6.05;3.85;;;;;;;5.11;54.91;100962.22;677074;29;1700;-83
2022/01/07 00:32:40;;;;;;;6.00;4.10;;;;;;;5.15;54.70;100961.56;677608;29;1883;-84
2022/01/07 00:33:00;;;;;;;4.20;3.80;;;;;;;5.17;54.78;100962.53;681684;29;1719;-84
2022/01/07 00:33:21;;;;;;;4.25;3.55;;;;;;;5.20;54.96;100974.75;675227;29;1820;-84
2022/01/07 00:33:42;;;;;;;5.63;3.50;;;;;;;5.08;54.77;100949.09;680217;29;1269;-83
2022/01/07 00:34:03;;;;;;;8.30;3.80;;;;;;;5.18;55.16;100961.75;682475;29;1104;-83
2022/01/07 00:34:23;;;;;;;9.30;3.85;;;;;;;5.12;54.89;100945.91;681930;29;1332;-83
2022/01/07 00:34:44;;;;;;;8.93;3.88;;;;;;;5.18;54.83;100950.50;680223;29;1169;-83
2022/01/07 00:35:06;;;;;;;9.35;3.95;;;;;;;5.27;55.01;100965.63;680051;28;1183;-83
2022/01/07 00:35:27;;;;;;;8.10;4.10;;;;;;;5.19;54.90;100950.59;674997;29;1358;-83
2022/01/07 00:35:47;;;;;;;7.90;4.10;;;;;;;5.15;54.75;100948.63;675182;29;1182;-83
2022/01/07 00:36:08;;;;;;;7.20;3.93;;;;;;;5.22;54.66;100959.31;678344;29;1076;-83
2022/01/07 00:36:29;;;;;;;9.63;4.03;;;;;;;5.12;54.67;100940.72;679339;29;1410;-83
2022/01/07 00:36:50;;;;;;;9.07;3.90;;;;;;;5.10;54.71;100947.53;679474;29;1713;-83
2022/01/07 00:37:11;;;;;;;8.05;3.88;;;;;;;5.15;54.79;100947.75;680113;29;1002;-83
2022/01/07 00:38:29;;;;;;;7.90;3.92;;;;;;;5.29;54.69;100964.00;682855;29;914;-83
2022/01/07 00:38:57;;;;;;;13.70;3.83;;;;;;;5.25;54.39;100941.34;687155;28;1183;-83
2022/01/07 00:39:18;;;;;;;12.52;3.78;;;;;;;5.25;54.59;100936.16;687900;28;1125;-84
2022/01/07 00:39:39;;;;;;;8.33;3.50;;;;;;;5.28;54.64;100942.41;684845;28;800;-83
2022/01/07 00:40:00;;;;;;;7.60;3.55;;;;;;;5.31;54.24;100957.22;682256;29;1559;-83
2022/01/07 00:40:22;;;;;;;4.80;3.25;;;;;;;5.24;54.36;100948.25;682550;29;1277;-84
2022/01/07 00:40:43;;;;;;;6.53;3.65;;;;;;;5.28;54.37;100951.88;682833;29;1113;-84
2022/01/07 00:41:05;;;;;;;6.13;3.60;;;;;;;5.27;54.26;100944.94;679931;29;1169;-84
2022/01/07 00:41:26;;;;;;;6.70;3.70;;;;;;;5.31;54.12;100946.84;677112;29;1389;-82
2022/01/07 00:41:46;;;;;;;5.65;3.60;;;;;;;5.28;53.99;100931.19;677657;29;1061;-82
2022/01/07 00:42:07;;;;;;;6.57;3.75;;;;;;;5.33;54.13;100945.22;679792;29;1407;-83
2022/01/07 00:42:28;;;;;;;8.35;4.00;;;;;;;5.31;53.86;100941.69;680105;29;772;-83
2022/01/07 00:42:50;;;;;;;8.50;3.77;;;;;;;5.30;54.44;100940.81;675381;29;1131;-83
2022/01/07 00:43:11;;;;;;;8.90;3.70;;;;;;;5.29;54.15;100935.53;679952;29;1015;-83
2022/01/07 00:43:32;;;;;;;7.22;3.50;;;;;;;5.23;54.11;100932.63;680102;29;1399;-84
2022/01/07 00:43:52;;;;;;;6.50;3.80;;;;;;;5.27;54.23;100932.88;680215;29;1033;-83
2022/01/07 00:44:13;;;;;;;6.70;3.60;;;;;;;5.23;54.02;100955.91;680028;29;1056;-84
2022/01/07 00:44:34;;;;;;;5.40;3.50;;;;;;;5.33;54.16;100942.63;688156;28;1431;-83
2022/01/07 00:44:55;;;;;;;5.07;3.22;;;;;;;5.32;54.23;100943.44;682623;29;1155;-83
2022/01/07 00:45:16;;;;;;;5.65;3.42;;;;;;;5.31;54.16;100936.50;680155;29;1212;-83
2022/01/07 00:45:36;;;;;;;7.53;3.60;;;;;;;5.32;54.03;100934.00;675036;29;845;-84
2022/01/07 00:45:57;;;;;;;7.20;3.33;;;;;;;5.37;53.96;100944.59;683076;28;1452;-84
2022/01/07 00:46:19;;;;;;;6.53;3.40;;;;;;;5.38;53.95;100933.44;685250;28;1191;-83
2022/01/07 00:46:39;;;;;;;5.20;3.13;;;;;;;5.36;53.56;100922.13;680333;28;1923;-84
2022/01/07 00:47:00;;;;;;;5.35;3.15;;;;;;;5.31;53.75;100926.16;680723;29;1280;-83
2022/01/07 00:47:21;;;;;;;5.82;3.05;;;;;;;5.38;53.68;100943.78;685305;28;1199;-83
2022/01/07 00:47:41;;;;;;;9.80;3.37;;;;;;;5.34;53.55;100931.50;680162;28;1370;-84
2022/01/07 00:48:02;;;;;;;10.77;3.50;;;;;;;5.40;53.61;100931.78;674849;29;1167;-84
2022/01/07 00:48:23;;;;;;;9.15;3.33;;;;;;;5.40;53.86;100939.56;674836;29;970;-84
2022/01/07 00:48:43;;;;;;;5.97;3.40;;;;;;;5.33;53.75;100929.69;680187;29;1453;-84
2022/01/07 00:49:04;;;;;;;6.20;3.80;;;;;;;5.37;53.76;100936.81;679958;29;1262;-83
2022/01/07 00:49:24;;;;;;;6.55;3.90;;;;;;;5.45;53.68;100935.53;679934;29;1188;-82
2022/01/07 00:49:45;;;;;;;8.50;3.70;;;;;;;5.40;53.83;100928.34;677024;29;1182;-83
2022/01/07 00:50:08;;;;;;;9.82;3.50;;;;;;;5.41;53.84;100928.41;677349;29;1219;-83
2022/01/07 00:50:30;;;;;;;11.93;3.28;;;;;;;5.43;53.77;100949.19;677541;29;1267;-83
2022/01/07 00:50:51;;;;;;;8.25;3.10;;;;;;;5.38;53.46;100937.69;680747;29;1206;-83
2022/01/07 00:51:11;;;;;;;7.03;3.10;;;;;;;5.43;53.51;100929.38;679869;29;1032;-83
2022/01/07 00:51:32;;;;;;;5.47;3.35;;;;;;;5.50;53.48;100937.44;682161;29;1393;-83
2022/01/07 00:51:52;;;;;;;5.40;3.25;;;;;;;5.45;53.45;100932.94;682492;29;1473;-83
2022/01/07 00:52:13;;;;;;;6.73;3.30;;;;;;;5.45;53.48;100921.69;677151;29;1304;-83
2022/01/07 00:52:34;;;;;;;7.07;3.13;;;;;;;5.47;53.59;100931.31;677490;29;776;-83
2022/01/07 00:52:55;;;;;;;6.68;3.10;;;;;;;5.53;53.18;100929.84;678778;29;1152;-82
2022/01/07 00:53:15;;;;;;;6.40;3.30;;;;;;;5.51;53.86;100921.13;680265;29;1263;-83
2022/01/07 00:53:36;;;;;;;5.47;3.50;;;;;;;5.48;53.38;100920.13;682797;29;1165;-83
2022/01/07 00:53:57;;;;;;;5.33;3.60;;;;;;;5.44;53.16;100913.03;679944;29;1294;-83
2022/01/07 00:54:18;;;;;;;7.90;3.70;;;;;;;5.53;53.53;100924.69;685122;28;1292;-83
2022/01/07 00:54:39;;;;;;;9.30;3.95;;;;;;;5.46;53.31;100921.75;682811;29;783;-83
2022/01/07 00:55:00;;;;;;;11.48;4.10;;;;;;;5.51;53.24;100915.94;679861;29;1184;-84
2022/01/07 00:55:21;;;;;;;8.88;3.88;;;;;;;5.54;52.98;100934.22;685236;28;1090;-83
2022/01/07 00:55:42;;;;;;;7.32;3.42;;;;;;;5.45;53.36;100914.81;679951;29;1201;-84
2022/01/07 00:56:03;;;;;;;3.67;3.20;;;;;;;5.46;53.45;100915.72;679662;29;1224;-83
2022/01/07 00:56:23;;;;;;;6.00;3.38;;;;;;;5.45;53.52;100917.41;677352;29;1103;-83
2022/01/07 00:56:44;;;;;;;7.33;3.70;;;;;;;5.44;53.53;100928.56;677315;29;1110;-83
2022/01/07 00:57:05;;;;;;;8.90;3.88;;;;;;;5.44;53.35;100938.03;684311;28;1159;-84
2022/01/07 00:57:25;;;;;;;7.03;3.60;;;;;;;5.32;53.66;100922.75;685495;28;756;-83
2022/01/07 00:57:48;;;;;;;7.50;3.50;;;;;;;5.40;53.57;100925.75;680138;29;1341;-83
2022/01/07 00:58:08;;;;;;;8.23;3.38;;;;;;;5.42;53.56;100930.19;679856;29;1078;-83
2022/01/07 00:58:29;;;;;;;9.48;3.83;;;;;;;5.40;53.76;100921.44;680224;29;768;-84
2022/01/07 00:58:49;;;;;;;9.17;3.77;;;;;;;5.44;53.61;100918.22;681486;29;1064;-84
2022/01/07 00:59:10;;;;;;;8.95;3.80;;;;;;;5.51;53.51;100927.19;685322;28;1093;-83
2022/01/07 00:59:30;;;;;;;9.30;3.75;;;;;;;5.45;53.19;100909.63;681813;29;1143;-83
2022/01/07 00:59:51;;;;;;;7.60;3.70;;;;;;;5.50;53.35;100919.31;680756;29;1069;-83
2022/01/07 01:00:14;;;;;;;6.97;3.67;;;;;;;5.41;53.38;100909.41;677329;29;1091;-83
2022/01/07 01:00:35;;;;;;;5.80;3.35;;;;;;;5.44;53.71;100913.03;679318;29;1608;-83
2022/01/07 01:00:56;;;;;;;5.27;3.40;;;;;;;5.48;53.72;100917.53;684342;28;1183;-83
2022/01/07 01:01:17;;;;;;;8.30;3.60;;;;;;;5.51;53.33;100928.91;682678;28;1018;-83
2022/01/07 01:01:38;;;;;;;8.25;3.55;;;;;;;5.46;53.43;100916.59;681131;29;1959;-84
2022/01/07 01:01:58;;;;;;;8.67;3.47;;;;;;;5.51;53.50;100921.13;679989;29;1055;-84
2022/01/07 01:02:19;;;;;;;5.05;3.15;;;;;;;5.46;53.60;100921.75;679953;29;1120;-82
2022/01/07 01:02:40;;;;;;;4.43;3.10;;;;;;;5.43;53.35;100926.81;682812;29;811;-83
2022/01/07 01:03:01;;;;;;;3.90;3.10;;;;;;;5.46;53.46;100921.75;682983;28;1259;-83
2022/01/07 01:03:21;;;;;;;4.67;3.20;;;;;;;5.37;53.71;100920.41;680046;29;1140;-83
2022/01/07 01:03:42;;;;;;;5.82;3.40;;;;;;;5.35;53.83;100922.94;685237;28;1374;-83
2022/01/07 01:04:03;;;;;;;8.00;3.58;;;;;;;5.40;53.95;100926.63;679867;29;1131;-84
2022/01/07 01:04:24;;;;;;;7.43;3.40;;;;;;;5.36;53.68;100906.59;682491;29;1106;-83
2022/01/07 01:04:45;;;;;;;8.23;3.40;;;;;;;5.38;53.76;100906.63;677389;29;1105;-83
2022/01/07 01:05:08;;;;;;;9.52;3.50;;;;;;;5.34;53.64;100911.66;677486;29;1078;-83
2022/01/07 01:05:29;;;;;;;9.70;3.50;;;;;;;5.32;53.32;100896.88;680217;29;800;-83
2022/01/07 01:05:49;;;;;;;7.70;3.45;;;;;;;5.29;53.75;100909.66;674744;29;1120;-83
2022/01/07 01:06:10;;;;;;;5.05;3.28;;;;;;;5.32;53.76;100907.22;681513;29;1194;-83
2022/01/07 01:06:31;;;;;;;3.97;3.25;;;;;;;5.35;53.76;100917.75;682699;29;1014;-83
2022/01/07 01:06:51;;;;;;;5.07;3.30;;;;;;;5.36;53.87;100911.75;679785;28;1918;-83
2022/01/07 01:07:14;;;;;;;6.47;3.43;;;;;;;5.34;53.71;100903.91;682657;28;1357;-83
2022/01/07 01:07:34;;;;;;;7.63;3.40;;;;;;;5.42;53.94;100909.50;680202;29;792;-83
2022/01/07 01:07:55;;;;;;;7.20;3.47;;;;;;;5.50;53.39;100899.50;682709;29;1073;-82
2022/01/07 01:08:16;;;;;;;6.25;3.63;;;;;;;5.41;53.56;100899.91;682605;29;1372;-83
2022/01/07 01:08:37;;;;;;;5.00;3.60;;;;;;;5.50;53.50;100907.28;679536;29;1393;-83
2022/01/07 01:08:57;;;;;;;6.72;3.70;;;;;;;5.44;53.44;100894.03;674788;29;1292;-83
2022/01/07 01:09:18;;;;;;;8.65;3.75;;;;;;;5.46;53.66;100897.59;679908;29;1278;-83
2022/01/07 01:09:38;;;;;;;9.80;3.80;;;;;;;5.51;53.40;100896.13;682103;29;1437;-83
2022/01/07 01:09:59;;;;;;;9.15;3.50;;;;;;;5.55;53.61;100897.16;685247;28;1171;-83
2022/01/07 01:10:24;;;;;;;9.32;3.47;;;;;;;5.58;53.29;100892.16;685243;28;1178;-83
2022/01/07 01:10:44;;;;;;;9.25;3.95;;;;;;;5.46;53.16;100898.47;679978;29;1241;-83
2022/01/07 01:11:05;;;;;;;7.67;4.00;;;;;;;5.53;53.56;100901.38;680446;28;1274;-83
2022/01/07 01:11:25;;;;;;;6.07;3.85;;;;;;;5.57;53.29;100913.66;682829;29;831;-83
2022/01/07 01:11:46;;;;;;;5.80;3.23;;;;;;;5.58;53.62;100908.56;682321;29;1487;-82
2022/01/07 01:12:08;;;;;;;5.57;3.57;;;;;;;5.44;53.24;100892.34;682329;29;1879;-83
2022/01/07 01:12:28;;;;;;;7.25;3.60;;;;;;;5.51;53.50;100884.88;682877;29;725;-84
2022/01/07 01:12:49;;;;;;;6.40;3.70;;;;;;;5.54;53.60;100892.78;682772;28;1041;-82
2022/01/07 01:13:09;;;;;;;6.10;3.17;;;;;;;5.55;53.30;100902.34;682237;29;1199;-83
2022/01/07 01:13:31;;;;;;;4.60;3.20;;;;;;;5.57;53.37;100904.19;679820;29;1292;-83
2022/01/07 01:13:52;;;;;;;3.95;3.00;;;;;;;5.43;53.34;100893.16;680010;29;1027;-84
2022/01/07 01:14:12;;;;;;;4.00;3.40;;;;;;;5.47;53.49;100897.66;676874;29;1138;-83
2022/01/07 01:14:33;;;;;;;6.15;3.60;;;;;;;5.55;53.15;100907.50;677550;29;761;-83
2022/01/07 01:14:54;;;;;;;8.30;3.60;;;;;;;5.48;53.28;100885.63;682679;29;1068;-83
2022/01/07 01:15:20;;;;;;;6.57;3.20;;;;;;;5.46;53.31;100898.47;677356;29;1176;-83
2022/01/07 01:15:40;;;;;;;3.90;3.20;;;;;;;5.48;53.22;100903.75;679669;29;1204;-83
2022/01/07 01:16:01;;;;;;;3.97;3.30;;;;;;;5.47;53.34;100902.84;682075;29;1193;-84
2022/01/07 01:16:22;;;;;;;5.03;3.30;;;;;;;5.51;53.46;100887.47;685363;28;1214;-83
2022/01/07 01:16:44;;;;;;;5.57;3.60;;;;;;;5.57;53.23;100896.44;679607;29;828;-83
2022/01/07 01:17:05;;;;;;;4.82;3.60;;;;;;;5.60;53.57;100908.66;677319;29;1311;-83
2022/01/07 01:17:25;;;;;;;4.68;3.53;;;;;;;5.58;53.32;100899.91;674956;29;816;-83
2022/01/07 01:17:46;;;;;;;6.25;3.30;;;;;;;5.50;52.96;100896.03;679936;29;1196;-84
2022/01/07 01:18:06;;;;;;;6.88;3.40;;;;;;;5.66;53.28;100908.97;677788;29;1163;-84
2022/01/07 01:18:27;;;;;;;8.10;3.50;;;;;;;5.62;52.81;100881.13;681113;28;725;-82
2022/01/07 01:18:48;;;;;;;7.65;3.70;;;;;;;5.65;52.94;100896.78;682551;29;1306;-83
2022/01/07 01:19:08;;;;;;;6.70;3.37;;;;;;;5.63;53.01;100903.59;679924;29;1391;-82
2022/01/07 01:19:29;;;;;;;5.80;3.25;;;;;;;5.60;53.03;100904.34;682475;29;795;-84
2022/01/07 01:20:10;;;;;;;6.28;3.25;;;;;;;5.59;52.91;100899.09;683160;28;949;-83
2022/01/07 01:20:32;;;;;;;6.55;3.47;;;;;;;5.62;53.23;100912.19;677536;29;898;-84
2022/01/07 01:20:53;;;;;;;7.55;3.60;;;;;;;5.58;53.29;100900.78;681077;29;1228;-83
2022/01/07 01:21:13;;;;;;;7.20;3.40;;;;;;;5.60;52.79;100906.06;684960;28;1201;-83
2022/01/07 01:21:35;;;;;;;5.97;3.28;;;;;;;5.54;52.74;100877.25;684825;28;1246;-83
2022/01/07 01:21:56;;;;;;;5.00;3.20;;;;;;;5.57;52.89;100887.75;681791;29;1470;-83
2022/01/07 01:22:16;;;;;;;6.33;3.37;;;;;;;5.56;53.26;100897.25;680151;29;1182;-82
2022/01/07 01:22:37;;;;;;;7.90;3.50;;;;;;;5.50;53.33;100881.41;680163;29;824;-84
2022/01/07 01:22:57;;;;;;;7.97;3.40;;;;;;;5.51;53.10;100890.06;682526;28;1215;-83
2022/01/07 01:23:18;;;;;;;8.37;3.23;;;;;;;5.45;53.09;100891.53;679904;28;1251;-83
2022/01/07 01:23:41;;;;;;;10.80;3.50;;;;;;;5.53;53.52;100886.72;674838;29;1179;-83
2022/01/07 01:24:02;;;;;;;12.38;3.60;;;;;;;5.47;53.40;100871.78;679908;29;1167;-83
2022/01/07 01:24:23;;;;;;;12.85;4.05;;;;;;;5.60;53.29;100903.47;682552;29;1912;-83
2022/01/07 01:24:44;;;;;;;8.47;3.90;;;;;;;5.55;53.59;100887.72;683632;28;780;-83
2022/01/07 01:25:05;;;;;;;7.97;3.80;;;;;;;5.55;53.21;100895.47;679999;29;1004;-83
2022/01/07 01:25:26;;;;;;;8.02;3.13;;;;;;;5.51;53.26;100893.53;677600;29;867;-84
2022/01/07 01:25:47;;;;;;;9.63;3.10;;;;;;;5.46;53.40;100887.25;682517;28;1263;-83
2022/01/07 01:26:07;;;;;;;8.33;3.30;;;;;;;5.56;53.50;100896.34;677466;29;1255;-83
2022/01/07 01:26:28;;;;;;;6.43;3.47;;;;;;;5.56;53.53;100894.66;677418;29;1164;-83
2022/01/07 01:26:49;;;;;;;5.25;3.35;;;;;;;5.44;53.39;100887.16;672422;29;1915;-83
2022/01/07 01:27:09;;;;;;;5.70;3.50;;;;;;;5.51;53.30;100897.84;679823;29;1055;-83
2022/01/07 01:27:30;;;;;;;6.30;3.47;;;;;;;5.56;53.40;100886.88;680130;29;1254;-83
2022/01/07 01:27:50;;;;;;;5.93;3.30;;;;;;;5.52;53.38;100882.34;679888;29;1416;-83
2022/01/07 01:28:11;;;;;;;5.40;3.00;;;;;;;5.48;53.30;100878.72;679885;28;1247;-83
2022/01/07 01:28:31;;;;;;;6.43;2.83;;;;;;;5.56;53.38;100892.06;685254;28;1650;-83
2022/01/07 01:28:52;;;;;;;6.63;3.00;;;;;;;5.53;53.20;100888.44;682614;29;1174;-83
2022/01/07 01:29:13;;;;;;;7.83;3.40;;;;;;;5.53;53.15;100898.78;679934;29;1122;-83
2022/01/07 01:29:43;;;;;;;8.25;3.67;;;;;;;5.53;53.43;100885.84;677081;29;793;-83
2022/01/07 01:30:06;;;;;;;8.68;3.55;;;;;;;5.46;53.46;100895.00;679777;29;1181;-83
2022/01/07 01:30:28;;;;;;;6.05;3.30;;;;;;;5.58;53.40;100897.34;674877;29;986;-83
2022/01/07 01:30:48;;;;;;;4.32;3.28;;;;;;;5.53;53.38;100880.66;679903;29;1242;-83
2022/01/07 01:31:09;;;;;;;5.00;3.20;;;;;;;5.57;53.20;100891.25;685204;28;1063;-83
2022/01/07 01:31:35;;;;;;;5.70;3.20;;;;;;;5.51;53.34;100888.34;685516;28;744;-83
2022/01/07 01:31:56;;;;;;;6.10;3.22;;;;;;;5.59;53.21;100879.25;680177;28;1114;-83
2022/01/07 01:32:17;;;;;;;5.50;3.15;;;;;;;5.62;53.23;100907.00;682559;29;1272;-83
2022/01/07 01:32:38;;;;;;;5.55;3.30;;;;;;;5.57;53.18;100898.13;685306;28;1613;-83
2022/01/07 01:32:59;;;;;;;5.65;3.42;;;;;;;5.66;53.07;100908.97;682534;29;1424;-83
2022/01/07 01:33:20;;;;;;;7.43;3.67;;;;;;;5.63;53.11;100898.44;677097;29;1430;-84
2022/01/07 01:33:41;;;;;;;8.37;3.50;;;;;;;5.62;52.91;100894.06;677262;29;1416;-83
2022/01/07 01:34:04;;;;;;;8.20;3.28;;;;;;;5.66;52.91;100895.13;674639;29;1224;-83
2022/01/07 01:34:24;;;;;;;5.20;3.10;;;;;;;5.65;53.10;100885.56;678203;29;1446;-84
2022/01/07 01:34:45;;;;;;;4.93;3.28;;;;;;;5.65;53.04;100886.44;679392;29;1145;-83
2022/01/07 01:35:07;;;;;;;5.00;3.30;;;;;;;5.71;53.02;100891.06;682529;29;1239;-83
2022/01/07 01:35:28;;;;;;;5.47;3.20;;;;;;;5.65;52.95;100891.63;685368;28;1254;-83
2022/01/07 01:35:49;;;;;;;4.30;3.20;;;;;;;5.64;52.73;100887.25;685844;28;1142;-82
2022/01/07 01:36:09;;;;;;;4.55;3.28;;;;;;;5.56;53.13;100881.72;675191;29;1143;-83
2022/01/07 01:36:31;;;;;;;4.30;3.10;;;;;;;5.60;53.10;100882.75;674531;29;1740;-83
2022/01/07 01:36:52;;;;;;;5.72;3.00;;;;;;;5.66;52.99;100887.34;674782;29;1038;-83
2022/01/07 01:37:12;;;;;;;5.28;2.90;;;;;;;5.64;52.98;100883.81;679901;29;1276;-84
2022/01/07 01:37:33;;;;;;;7.30;3.15;;;;;;;5.63;52.97;100882.03;680095;29;792;-84
2022/01/07 01:37:54;;;;;;;8.48;3.40;;;;;;;5.66;53.06;100888.25;681295;29;1025;-84
2022/01/07 01:38:15;;;;;;;9.07;3.60;;;;;;;5.62;53.33;100881.13;682437;29;1225;-83
2022/01/07 01:38:37;;;;;;;7.10;3.63;;;;;;;5.70;52.81;100891.88;679918;29;872;-83
2022/01/07 01:38:59;;;;;;;6.18;3.67;;;;;;;5.66;52.97;100888.25;676370;29;1365;-83
2022/01/07 01:39:19;;;;;;;5.72;3.67;;;;;;;5.69;53.08;100885.81;677254;29;1090;-83
2022/01/07 01:39:40;;;;;;;4.90;3.63;;;;;;;5.66;53.13;100874.41;676799;29;773;-83
2022/01/07 01:40:00;;;;;;;5.07;3.97;;;;;;;5.67;53.10;100876.16;679909;29;1181;-83
2022/01/07 01:40:21;;;;;;;7.23;4.10;;;;;;;5.69;52.96;100878.03;677301;29;1081;-83
2022/01/07 01:40:42;;;;;;;6.60;3.80;;;;;;;5.63;53.01;100867.34;680148;29;784;-83
2022/01/07 01:41:03;;;;;;;7.32;3.40;;;;;;;5.68;52.98;100877.94;679497;29;1296;-82
2022/01/07 01:41:24;;;;;;;6.40;3.30;;;;;;;5.61;52.92;100869.00;674353;29;1476;-83
2022/01/07 01:41:45;;;;;;;7.60;3.55;;;;;;;5.70;52.83;100881.53;677278;29;1209;-83
2022/01/07 01:42:06;;;;;;;7.47;3.50;;;;;;;5.76;53.05;100894.75;685104;28;1153;-83
2022/01/07 01:42:26;;;;;;;6.65;3.45;;;;;;;5.69;52.79;100867.66;682701;28;775;-83
2022/01/07 01:42:52;;;;;;;6.95;3.45;;;;;;;5.68;52.89;100876.25;677731;29;1050;-83
2022/01/07 01:43:12;;;;;;;8.05;3.50;;;;;;;5.67;52.84;100874.47;682551;29;1240;-83
2022/01/07 01:43:33;;;;;;;9.80;3.70;;;;;;;5.65;53.08;100876.09;680057;29;1285;-84